sensor_id;sensor_type;location;lat;lon;timestamp;P1;durP1;ratioP1;P2;durP2;ratioP2
4563;SDS011;2294;51.818;8.484;2023-02-15T00:01:33;17.43;;;9.57;;
4563;SDS011;2294;51.818;8.484;2023-02-15T00:04:00;18.33;;;9.17;;
4563;SDS011;2294;51.818;8.484;2023-02-15T00:06:29;16.03;;;8.23;;
4563;SDS011;2294;51.818;8.484;2023-02-15T00:08:56;15.10;;;7.67;;
4563;SDS011;2294;51.818;8.484;2023-02-15T00:11:23;16.23;;;9.43;;
4563;SDS011;2294;51.818;8.484;2023-02-15T00:14:04;12.17;;;7.60;;
4563;SDS011;2294;51.818;8.484;2023-02-15T00:16:31;15.97;;;9.10;;
4563;SDS011;2294;51.818;8.484;2023-02-15T00:18:58;14.70;;;8.70;;
4563;SDS011;2294;51.818;8.484;2023-02-15T00:21:27;13.30;;;8.23;;
4563;SDS011;2294;51.818;8.484;2023-02-15T00:23:55;17.37;;;8.97;;
4563;SDS011;2294;51.818;8.484;2023-02-15T00:26:23;23.00;;;8.70;;
4563;SDS011;2294;51.818;8.484;2023-02-15T00:28:50;14.97;;;8.33;;
4563;SDS011;2294;51.818;8.484;2023-02-15T00:31:18;13.87;;;8.70;;
4563;SDS011;2294;51.818;8.484;2023-02-15T00:33:45;10.23;;;7.50;;
4563;SDS011;2294;51.818;8.484;2023-02-15T00:36:12;18.23;;;9.73;;
4563;SDS011;2294;51.818;8.484;2023-02-15T00:38:40;14.57;;;7.60;;
4563;SDS011;2294;51.818;8.484;2023-02-15T00:41:08;17.10;;;9.47;;
4563;SDS011;2294;51.818;8.484;2023-02-15T00:43:36;12.47;;;7.90;;
4563;SDS011;2294;51.818;8.484;2023-02-15T00:46:03;12.60;;;7.83;;
4563;SDS011;2294;51.818;8.484;2023-02-15T00:48:31;17.90;;;8.93;;
4563;SDS011;2294;51.818;8.484;2023-02-15T00:50:58;11.40;;;7.30;;
4563;SDS011;2294;51.818;8.484;2023-02-15T00:53:26;14.40;;;8.60;;
4563;SDS011;2294;51.818;8.484;2023-02-15T00:55:55;16.03;;;8.23;;
4563;SDS011;2294;51.818;8.484;2023-02-15T00:58:22;14.10;;;8.57;;
4563;SDS011;2294;51.818;8.484;2023-02-15T01:00:50;15.50;;;8.03;;
4563;SDS011;2294;51.818;8.484;2023-02-15T01:03:17;15.77;;;9.03;;
4563;SDS011;2294;51.818;8.484;2023-02-15T01:05:46;14.53;;;7.83;;
4563;SDS011;2294;51.818;8.484;2023-02-15T01:08:13;13.00;;;7.70;;
4563;SDS011;2294;51.818;8.484;2023-02-15T01:10:40;14.40;;;8.03;;
4563;SDS011;2294;51.818;8.484;2023-02-15T01:13:10;13.53;;;7.40;;
4563;SDS011;2294;51.818;8.484;2023-02-15T01:15:37;11.60;;;6.70;;
4563;SDS011;2294;51.818;8.484;2023-02-15T01:18:04;14.53;;;8.03;;
4563;SDS011;2294;51.818;8.484;2023-02-15T01:20:33;21.23;;;9.13;;
4563;SDS011;2294;51.818;8.484;2023-02-15T01:23:01;20.30;;;9.53;;
4563;SDS011;2294;51.818;8.484;2023-02-15T01:25:28;15.07;;;8.50;;
4563;SDS011;2294;51.818;8.484;2023-02-15T01:27:55;15.03;;;8.73;;
4563;SDS011;2294;51.818;8.484;2023-02-15T01:30:23;13.57;;;8.20;;
4563;SDS011;2294;51.818;8.484;2023-02-15T01:32:50;12.67;;;7.47;;
4563;SDS011;2294;51.818;8.484;2023-02-15T01:35:18;12.97;;;7.97;;
4563;SDS011;2294;51.818;8.484;2023-02-15T01:37:45;15.37;;;8.17;;
4563;SDS011;2294;51.818;8.484;2023-02-15T01:40:13;15.63;;;8.10;;
4563;SDS011;2294;51.818;8.484;2023-02-15T01:42:43;11.00;;;7.03;;
4563;SDS011;2294;51.818;8.484;2023-02-15T01:45:14;12.87;;;7.20;;
4563;SDS011;2294;51.818;8.484;2023-02-15T01:47:49;16.17;;;8.37;;
4563;SDS011;2294;51.818;8.484;2023-02-15T01:50:21;13.97;;;7.80;;
4563;SDS011;2294;51.818;8.484;2023-02-15T01:52:52;11.47;;;7.30;;
4563;SDS011;2294;51.818;8.484;2023-02-15T01:55:22;13.73;;;8.20;;
4563;SDS011;2294;51.818;8.484;2023-02-15T01:57:52;14.10;;;8.60;;
4563;SDS011;2294;51.818;8.484;2023-02-15T02:00:21;14.83;;;7.93;;
4563;SDS011;2294;51.818;8.484;2023-02-15T02:02:50;13.23;;;8.50;;
4563;SDS011;2294;51.818;8.484;2023-02-15T02:05:21;16.93;;;8.37;;
4563;SDS011;2294;51.818;8.484;2023-02-15T02:07:48;11.33;;;7.40;;
4563;SDS011;2294;51.818;8.484;2023-02-15T02:10:18;15.57;;;9.03;;
4563;SDS011;2294;51.818;8.484;2023-02-15T02:12:47;13.40;;;7.70;;
4563;SDS011;2294;51.818;8.484;2023-02-15T02:15:16;13.00;;;8.10;;
4563;SDS011;2294;51.818;8.484;2023-02-15T02:17:48;19.13;;;7.73;;
4563;SDS011;2294;51.818;8.484;2023-02-15T02:20:29;11.60;;;7.20;;
4563;SDS011;2294;51.818;8.484;2023-02-15T02:23:15;10.33;;;6.87;;
4563;SDS011;2294;51.818;8.484;2023-02-15T02:26:05;11.83;;;7.03;;
4563;SDS011;2294;51.818;8.484;2023-02-15T02:35:03;13.10;;;7.60;;
4563;SDS011;2294;51.818;8.484;2023-02-15T02:37:40;12.07;;;7.70;;
4563;SDS011;2294;51.818;8.484;2023-02-15T02:40:17;17.13;;;8.40;;
4563;SDS011;2294;51.818;8.484;2023-02-15T02:42:50;14.47;;;7.50;;
4563;SDS011;2294;51.818;8.484;2023-02-15T02:45:24;20.80;;;8.60;;
4563;SDS011;2294;51.818;8.484;2023-02-15T02:47:55;13.63;;;7.77;;
4563;SDS011;2294;51.818;8.484;2023-02-15T02:50:29;13.27;;;7.87;;
4563;SDS011;2294;51.818;8.484;2023-02-15T02:52:57;14.60;;;8.60;;
4563;SDS011;2294;51.818;8.484;2023-02-15T02:55:25;15.40;;;7.87;;
4563;SDS011;2294;51.818;8.484;2023-02-15T02:57:55;15.43;;;8.33;;
4563;SDS011;2294;51.818;8.484;2023-02-15T03:00:27;14.27;;;8.93;;
4563;SDS011;2294;51.818;8.484;2023-02-15T03:02:58;15.00;;;8.27;;
4563;SDS011;2294;51.818;8.484;2023-02-15T03:05:31;15.13;;;8.17;;
4563;SDS011;2294;51.818;8.484;2023-02-15T03:07:59;18.90;;;9.83;;
4563;SDS011;2294;51.818;8.484;2023-02-15T03:10:31;16.80;;;9.00;;
4563;SDS011;2294;51.818;8.484;2023-02-15T03:13:00;20.70;;;8.90;;
4563;SDS011;2294;51.818;8.484;2023-02-15T03:15:28;20.50;;;9.63;;
4563;SDS011;2294;51.818;8.484;2023-02-15T03:18:18;17.00;;;9.23;;
4563;SDS011;2294;51.818;8.484;2023-02-15T03:20:51;19.70;;;10.80;;
4563;SDS011;2294;51.818;8.484;2023-02-15T03:23:20;14.90;;;8.53;;
4563;SDS011;2294;51.818;8.484;2023-02-15T03:25:51;15.63;;;9.10;;
4563;SDS011;2294;51.818;8.484;2023-02-15T03:28:23;15.43;;;9.10;;
4563;SDS011;2294;51.818;8.484;2023-02-15T03:30:55;13.43;;;8.90;;
4563;SDS011;2294;51.818;8.484;2023-02-15T03:33:26;15.97;;;9.30;;
4563;SDS011;2294;51.818;8.484;2023-02-15T03:35:57;17.00;;;10.40;;
4563;SDS011;2294;51.818;8.484;2023-02-15T03:38:32;20.83;;;10.37;;
4563;SDS011;2294;51.818;8.484;2023-02-15T03:41:02;18.63;;;9.90;;
4563;SDS011;2294;51.818;8.484;2023-02-15T03:43:38;13.70;;;8.30;;
4563;SDS011;2294;51.818;8.484;2023-02-15T03:46:13;13.90;;;9.43;;
4563;SDS011;2294;51.818;8.484;2023-02-15T03:48:46;18.03;;;9.20;;
4563;SDS011;2294;51.818;8.484;2023-02-15T03:51:19;13.03;;;8.13;;
4563;SDS011;2294;51.818;8.484;2023-02-15T03:54:01;16.63;;;10.17;;
4563;SDS011;2294;51.818;8.484;2023-02-15T03:56:31;15.27;;;8.73;;
4563;SDS011;2294;51.818;8.484;2023-02-15T03:59:00;13.77;;;8.70;;
4563;SDS011;2294;51.818;8.484;2023-02-15T04:01:46;15.27;;;8.63;;
4563;SDS011;2294;51.818;8.484;2023-02-15T04:04:35;17.23;;;9.50;;
4563;SDS011;2294;51.818;8.484;2023-02-15T04:07:05;15.70;;;9.60;;
4563;SDS011;2294;51.818;8.484;2023-02-15T04:09:34;19.37;;;9.77;;
4563;SDS011;2294;51.818;8.484;2023-02-15T04:12:18;13.83;;;8.20;;
4563;SDS011;2294;51.818;8.484;2023-02-15T04:14:45;13.43;;;8.50;;
4563;SDS011;2294;51.818;8.484;2023-02-15T04:17:29;17.50;;;9.03;;
4563;SDS011;2294;51.818;8.484;2023-02-15T04:19:56;14.30;;;8.90;;
4563;SDS011;2294;51.818;8.484;2023-02-15T04:22:42;22.27;;;9.70;;
4563;SDS011;2294;51.818;8.484;2023-02-15T04:25:26;16.53;;;8.80;;
4563;SDS011;2294;51.818;8.484;2023-02-15T04:27:53;12.80;;;8.47;;
4563;SDS011;2294;51.818;8.484;2023-02-15T04:30:21;14.73;;;8.90;;
4563;SDS011;2294;51.818;8.484;2023-02-15T04:32:50;17.70;;;9.43;;
4563;SDS011;2294;51.818;8.484;2023-02-15T04:35:17;19.50;;;9.97;;
4563;SDS011;2294;51.818;8.484;2023-02-15T04:37:46;17.97;;;8.87;;
4563;SDS011;2294;51.818;8.484;2023-02-15T04:40:13;15.07;;;8.77;;
4563;SDS011;2294;51.818;8.484;2023-02-15T04:42:41;14.37;;;9.13;;
4563;SDS011;2294;51.818;8.484;2023-02-15T04:45:08;15.53;;;9.30;;
4563;SDS011;2294;51.818;8.484;2023-02-15T04:47:35;16.23;;;8.43;;
4563;SDS011;2294;51.818;8.484;2023-02-15T04:50:02;22.40;;;9.30;;
4563;SDS011;2294;51.818;8.484;2023-02-15T04:52:29;14.37;;;8.40;;
4563;SDS011;2294;51.818;8.484;2023-02-15T04:54:57;15.07;;;8.57;;
4563;SDS011;2294;51.818;8.484;2023-02-15T04:57:24;13.07;;;7.67;;
4563;SDS011;2294;51.818;8.484;2023-02-15T04:59:51;16.60;;;9.77;;
4563;SDS011;2294;51.818;8.484;2023-02-15T05:02:18;14.77;;;8.70;;
4563;SDS011;2294;51.818;8.484;2023-02-15T05:04:45;14.60;;;8.30;;
4563;SDS011;2294;51.818;8.484;2023-02-15T05:07:12;18.40;;;9.23;;
4563;SDS011;2294;51.818;8.484;2023-02-15T05:09:39;17.07;;;9.40;;
4563;SDS011;2294;51.818;8.484;2023-02-15T05:12:08;14.53;;;9.10;;
4563;SDS011;2294;51.818;8.484;2023-02-15T05:14:34;13.93;;;8.50;;
4563;SDS011;2294;51.818;8.484;2023-02-15T05:17:01;14.80;;;7.90;;
4563;SDS011;2294;51.818;8.484;2023-02-15T05:19:30;16.00;;;9.60;;
4563;SDS011;2294;51.818;8.484;2023-02-15T05:21:57;14.90;;;7.97;;
4563;SDS011;2294;51.818;8.484;2023-02-15T05:24:24;16.23;;;8.80;;
4563;SDS011;2294;51.818;8.484;2023-02-15T05:27:11;14.80;;;8.57;;
4563;SDS011;2294;51.818;8.484;2023-02-15T05:29:52;16.67;;;8.30;;
4563;SDS011;2294;51.818;8.484;2023-02-15T05:32:19;14.57;;;8.40;;
4563;SDS011;2294;51.818;8.484;2023-02-15T05:34:46;13.70;;;8.50;;
4563;SDS011;2294;51.818;8.484;2023-02-15T05:37:13;15.87;;;8.83;;
4563;SDS011;2294;51.818;8.484;2023-02-15T05:39:39;13.83;;;7.83;;
4563;SDS011;2294;51.818;8.484;2023-02-15T05:42:06;20.13;;;10.50;;
4563;SDS011;2294;51.818;8.484;2023-02-15T05:44:34;55.83;;;23.37;;
4563;SDS011;2294;51.818;8.484;2023-02-15T05:47:01;43.73;;;16.50;;
4563;SDS011;2294;51.818;8.484;2023-02-15T05:49:29;20.07;;;10.17;;
4563;SDS011;2294;51.818;8.484;2023-02-15T05:51:56;23.33;;;12.00;;
4563;SDS011;2294;51.818;8.484;2023-02-15T05:54:23;19.53;;;10.10;;
4563;SDS011;2294;51.818;8.484;2023-02-15T05:56:50;16.70;;;9.73;;
4563;SDS011;2294;51.818;8.484;2023-02-15T05:59:17;17.17;;;10.50;;
4563;SDS011;2294;51.818;8.484;2023-02-15T06:01:45;15.13;;;9.30;;
4563;SDS011;2294;51.818;8.484;2023-02-15T06:04:12;14.23;;;8.27;;
4563;SDS011;2294;51.818;8.484;2023-02-15T06:06:39;15.23;;;9.20;;
4563;SDS011;2294;51.818;8.484;2023-02-15T06:09:06;15.73;;;10.23;;
4563;SDS011;2294;51.818;8.484;2023-02-15T06:11:33;18.07;;;8.90;;
4563;SDS011;2294;51.818;8.484;2023-02-15T06:13:59;15.57;;;9.27;;
4563;SDS011;2294;51.818;8.484;2023-02-15T06:16:26;13.47;;;7.87;;
4563;SDS011;2294;51.818;8.484;2023-02-15T06:18:55;14.43;;;7.83;;
4563;SDS011;2294;51.818;8.484;2023-02-15T06:21:22;18.27;;;8.90;;
4563;SDS011;2294;51.818;8.484;2023-02-15T06:23:48;18.90;;;9.93;;
4563;SDS011;2294;51.818;8.484;2023-02-15T06:26:15;17.47;;;9.03;;
4563;SDS011;2294;51.818;8.484;2023-02-15T06:28:43;14.57;;;8.67;;
4563;SDS011;2294;51.818;8.484;2023-02-15T06:31:09;16.00;;;8.40;;
4563;SDS011;2294;51.818;8.484;2023-02-15T06:33:36;17.30;;;9.03;;
4563;SDS011;2294;51.818;8.484;2023-02-15T06:36:05;13.73;;;8.30;;
4563;SDS011;2294;51.818;8.484;2023-02-15T06:38:32;14.00;;;8.00;;
4563;SDS011;2294;51.818;8.484;2023-02-15T06:40:59;16.50;;;8.40;;
4563;SDS011;2294;51.818;8.484;2023-02-15T06:43:26;14.20;;;8.70;;
4563;SDS011;2294;51.818;8.484;2023-02-15T06:45:52;15.87;;;7.60;;
4563;SDS011;2294;51.818;8.484;2023-02-15T06:48:19;18.33;;;9.40;;
4563;SDS011;2294;51.818;8.484;2023-02-15T06:50:46;16.40;;;9.10;;
4563;SDS011;2294;51.818;8.484;2023-02-15T06:53:15;18.33;;;10.07;;
4563;SDS011;2294;51.818;8.484;2023-02-15T06:55:42;17.67;;;9.43;;
4563;SDS011;2294;51.818;8.484;2023-02-15T06:58:09;16.83;;;8.60;;
4563;SDS011;2294;51.818;8.484;2023-02-15T07:00:36;18.60;;;9.17;;
4563;SDS011;2294;51.818;8.484;2023-02-15T07:03:03;15.40;;;9.00;;
4563;SDS011;2294;51.818;8.484;2023-02-15T07:05:32;18.20;;;9.30;;
4563;SDS011;2294;51.818;8.484;2023-02-15T07:08:00;16.97;;;8.77;;
4563;SDS011;2294;51.818;8.484;2023-02-15T07:10:29;16.47;;;8.90;;
4563;SDS011;2294;51.818;8.484;2023-02-15T07:12:56;17.33;;;10.00;;
4563;SDS011;2294;51.818;8.484;2023-02-15T07:15:22;17.43;;;9.83;;
4563;SDS011;2294;51.818;8.484;2023-02-15T07:17:49;19.27;;;10.07;;
4563;SDS011;2294;51.818;8.484;2023-02-15T07:20:16;15.70;;;9.40;;
4563;SDS011;2294;51.818;8.484;2023-02-15T07:22:45;17.00;;;7.80;;
4563;SDS011;2294;51.818;8.484;2023-02-15T07:25:13;17.87;;;8.40;;
4563;SDS011;2294;51.818;8.484;2023-02-15T07:27:41;15.10;;;8.60;;
4563;SDS011;2294;51.818;8.484;2023-02-15T07:30:10;17.17;;;8.57;;
4563;SDS011;2294;51.818;8.484;2023-02-15T07:32:39;17.67;;;9.53;;
4563;SDS011;2294;51.818;8.484;2023-02-15T07:35:26;16.67;;;9.30;;
4563;SDS011;2294;51.818;8.484;2023-02-15T07:37:53;19.90;;;9.50;;
4563;SDS011;2294;51.818;8.484;2023-02-15T07:40:20;18.47;;;9.00;;
4563;SDS011;2294;51.818;8.484;2023-02-15T07:42:50;17.20;;;9.83;;
4563;SDS011;2294;51.818;8.484;2023-02-15T07:45:19;23.70;;;11.77;;
4563;SDS011;2294;51.818;8.484;2023-02-15T07:47:47;22.37;;;11.50;;
4563;SDS011;2294;51.818;8.484;2023-02-15T07:50:14;21.47;;;11.03;;
4563;SDS011;2294;51.818;8.484;2023-02-15T07:52:41;23.47;;;11.60;;
4563;SDS011;2294;51.818;8.484;2023-02-15T07:55:08;18.53;;;11.70;;
4563;SDS011;2294;51.818;8.484;2023-02-15T07:57:38;23.27;;;12.13;;
4563;SDS011;2294;51.818;8.484;2023-02-15T08:00:11;24.60;;;14.00;;
4563;SDS011;2294;51.818;8.484;2023-02-15T08:02:39;21.00;;;12.30;;
4563;SDS011;2294;51.818;8.484;2023-02-15T08:05:06;23.70;;;12.73;;
4563;SDS011;2294;51.818;8.484;2023-02-15T08:07:34;23.97;;;12.77;;
4563;SDS011;2294;51.818;8.484;2023-02-15T08:10:00;23.13;;;13.10;;
4563;SDS011;2294;51.818;8.484;2023-02-15T08:12:27;22.23;;;12.53;;
4563;SDS011;2294;51.818;8.484;2023-02-15T08:14:54;18.37;;;11.40;;
4563;SDS011;2294;51.818;8.484;2023-02-15T08:17:23;28.73;;;13.90;;
4563;SDS011;2294;51.818;8.484;2023-02-15T08:19:49;26.63;;;14.00;;
4563;SDS011;2294;51.818;8.484;2023-02-15T08:22:16;25.30;;;13.33;;
4563;SDS011;2294;51.818;8.484;2023-02-15T08:24:43;23.87;;;13.33;;
4563;SDS011;2294;51.818;8.484;2023-02-15T08:27:10;27.50;;;14.60;;
4563;SDS011;2294;51.818;8.484;2023-02-15T08:29:37;29.00;;;13.20;;
4563;SDS011;2294;51.818;8.484;2023-02-15T08:32:06;37.20;;;18.37;;
4563;SDS011;2294;51.818;8.484;2023-02-15T08:34:36;36.40;;;18.03;;
4563;SDS011;2294;51.818;8.484;2023-02-15T08:37:05;44.03;;;19.40;;
4563;SDS011;2294;51.818;8.484;2023-02-15T08:39:32;39.47;;;20.87;;
4563;SDS011;2294;51.818;8.484;2023-02-15T08:41:59;43.80;;;17.10;;
4563;SDS011;2294;51.818;8.484;2023-02-15T08:44:25;58.97;;;22.30;;
4563;SDS011;2294;51.818;8.484;2023-02-15T08:46:52;25.20;;;12.70;;
4563;SDS011;2294;51.818;8.484;2023-02-15T08:49:20;21.20;;;11.00;;
4563;SDS011;2294;51.818;8.484;2023-02-15T08:51:49;18.57;;;10.33;;
4563;SDS011;2294;51.818;8.484;2023-02-15T08:54:17;20.43;;;10.17;;
4563;SDS011;2294;51.818;8.484;2023-02-15T08:56:45;17.10;;;10.67;;
4563;SDS011;2294;51.818;8.484;2023-02-15T08:59:13;19.33;;;8.80;;
4563;SDS011;2294;51.818;8.484;2023-02-15T09:01:41;21.93;;;10.60;;
4563;SDS011;2294;51.818;8.484;2023-02-15T09:04:08;21.77;;;11.37;;
4563;SDS011;2294;51.818;8.484;2023-02-15T09:06:35;21.87;;;10.07;;
4563;SDS011;2294;51.818;8.484;2023-02-15T09:09:04;17.37;;;10.10;;
4563;SDS011;2294;51.818;8.484;2023-02-15T09:11:33;15.60;;;9.97;;
4563;SDS011;2294;51.818;8.484;2023-02-15T09:14:03;19.20;;;9.07;;
4563;SDS011;2294;51.818;8.484;2023-02-15T09:16:31;24.83;;;10.53;;
4563;SDS011;2294;51.818;8.484;2023-02-15T09:18:59;24.70;;;11.70;;
4563;SDS011;2294;51.818;8.484;2023-02-15T09:21:27;20.30;;;10.60;;
4563;SDS011;2294;51.818;8.484;2023-02-15T09:23:55;17.20;;;9.10;;
4563;SDS011;2294;51.818;8.484;2023-02-15T09:26:26;14.10;;;8.87;;
4563;SDS011;2294;51.818;8.484;2023-02-15T09:28:57;20.57;;;10.77;;
4563;SDS011;2294;51.818;8.484;2023-02-15T09:31:26;19.83;;;10.43;;
4563;SDS011;2294;51.818;8.484;2023-02-15T09:33:54;25.17;;;11.67;;
4563;SDS011;2294;51.818;8.484;2023-02-15T09:36:21;20.70;;;10.60;;
4563;SDS011;2294;51.818;8.484;2023-02-15T09:38:52;20.53;;;10.80;;
4563;SDS011;2294;51.818;8.484;2023-02-15T09:44:26;25.00;;;11.90;;
4563;SDS011;2294;51.818;8.484;2023-02-15T09:47:14;27.77;;;14.23;;
4563;SDS011;2294;51.818;8.484;2023-02-15T09:49:58;30.10;;;14.30;;
4563;SDS011;2294;51.818;8.484;2023-02-15T09:52:39;38.53;;;16.90;;
4563;SDS011;2294;51.818;8.484;2023-02-15T09:55:19;42.60;;;21.93;;
4563;SDS011;2294;51.818;8.484;2023-02-15T09:58:03;42.40;;;19.40;;
4563;SDS011;2294;51.818;8.484;2023-02-15T10:00:37;29.50;;;15.03;;
4563;SDS011;2294;51.818;8.484;2023-02-15T10:03:13;29.77;;;16.83;;
4563;SDS011;2294;51.818;8.484;2023-02-15T10:05:53;48.03;;;15.97;;
4563;SDS011;2294;51.818;8.484;2023-02-15T10:08:44;32.27;;;16.90;;
4563;SDS011;2294;51.818;8.484;2023-02-15T10:11:29;26.00;;;13.60;;
4563;SDS011;2294;51.818;8.484;2023-02-15T10:14:11;21.13;;;10.87;;
4563;SDS011;2294;51.818;8.484;2023-02-15T10:16:49;18.67;;;11.07;;
4563;SDS011;2294;51.818;8.484;2023-02-15T10:19:23;19.10;;;10.60;;
4563;SDS011;2294;51.818;8.484;2023-02-15T10:22:02;114.97;;;45.40;;
4563;SDS011;2294;51.818;8.484;2023-02-15T10:24:56;106.57;;;42.07;;
4563;SDS011;2294;51.818;8.484;2023-02-15T10:27:39;66.90;;;28.10;;
4563;SDS011;2294;51.818;8.484;2023-02-15T10:30:13;54.30;;;21.60;;
4563;SDS011;2294;51.818;8.484;2023-02-15T10:32:45;30.23;;;14.90;;
4563;SDS011;2294;51.818;8.484;2023-02-15T10:35:20;47.17;;;21.10;;
4563;SDS011;2294;51.818;8.484;2023-02-15T10:38:00;100.37;;;39.70;;
4563;SDS011;2294;51.818;8.484;2023-02-15T10:40:43;87.77;;;36.20;;
4563;SDS011;2294;51.818;8.484;2023-02-15T10:43:23;40.80;;;21.00;;
4563;SDS011;2294;51.818;8.484;2023-02-15T10:46:06;45.20;;;21.30;;
4563;SDS011;2294;51.818;8.484;2023-02-15T10:51:54;38.80;;;17.77;;
4563;SDS011;2294;51.818;8.484;2023-02-15T10:54:33;37.67;;;18.33;;
4563;SDS011;2294;51.818;8.484;2023-02-15T10:57:09;31.90;;;15.80;;
4563;SDS011;2294;51.818;8.484;2023-02-15T10:59:51;21.23;;;11.97;;
4563;SDS011;2294;51.818;8.484;2023-02-15T11:02:33;23.80;;;11.57;;
4563;SDS011;2294;51.818;8.484;2023-02-15T11:05:26;18.70;;;11.07;;
4563;SDS011;2294;51.818;8.484;2023-02-15T11:08:03;26.97;;;12.80;;
4563;SDS011;2294;51.818;8.484;2023-02-15T11:10:34;31.47;;;14.77;;
4563;SDS011;2294;51.818;8.484;2023-02-15T11:13:06;28.30;;;15.13;;
4563;SDS011;2294;51.818;8.484;2023-02-15T11:15:36;29.50;;;15.23;;
4563;SDS011;2294;51.818;8.484;2023-02-15T11:18:11;39.67;;;17.60;;
4563;SDS011;2294;51.818;8.484;2023-02-15T11:20:42;65.67;;;26.47;;
4563;SDS011;2294;51.818;8.484;2023-02-15T11:23:13;65.40;;;25.10;;
4563;SDS011;2294;51.818;8.484;2023-02-15T11:25:44;57.50;;;23.73;;
4563;SDS011;2294;51.818;8.484;2023-02-15T11:28:17;67.27;;;25.20;;
4563;SDS011;2294;51.818;8.484;2023-02-15T11:30:48;71.57;;;27.23;;
4563;SDS011;2294;51.818;8.484;2023-02-15T11:33:20;62.17;;;25.63;;
4563;SDS011;2294;51.818;8.484;2023-02-15T11:35:51;55.07;;;24.17;;
4563;SDS011;2294;51.818;8.484;2023-02-15T11:38:23;46.60;;;22.37;;
4563;SDS011;2294;51.818;8.484;2023-02-15T11:40:54;36.17;;;16.60;;
4563;SDS011;2294;51.818;8.484;2023-02-15T11:43:24;33.53;;;17.50;;
4563;SDS011;2294;51.818;8.484;2023-02-15T11:45:55;29.40;;;15.43;;
4563;SDS011;2294;51.818;8.484;2023-02-15T11:48:24;38.30;;;17.70;;
4563;SDS011;2294;51.818;8.484;2023-02-15T11:50:51;48.40;;;22.70;;
4563;SDS011;2294;51.818;8.484;2023-02-15T11:53:18;48.33;;;22.13;;
4563;SDS011;2294;51.818;8.484;2023-02-15T11:55:49;48.63;;;22.27;;
4563;SDS011;2294;51.818;8.484;2023-02-15T11:58:22;44.37;;;20.63;;
4563;SDS011;2294;51.818;8.484;2023-02-15T12:00:55;38.47;;;18.67;;
4563;SDS011;2294;51.818;8.484;2023-02-15T12:03:29;44.17;;;19.37;;
4563;SDS011;2294;51.818;8.484;2023-02-15T12:06:05;30.67;;;15.70;;
4563;SDS011;2294;51.818;8.484;2023-02-15T12:08:43;29.77;;;14.80;;
4563;SDS011;2294;51.818;8.484;2023-02-15T12:11:17;30.17;;;13.40;;
4563;SDS011;2294;51.818;8.484;2023-02-15T12:13:55;28.43;;;13.70;;
4563;SDS011;2294;51.818;8.484;2023-02-15T12:16:23;26.80;;;13.23;;
4563;SDS011;2294;51.818;8.484;2023-02-15T12:18:53;25.63;;;12.97;;
4563;SDS011;2294;51.818;8.484;2023-02-15T12:21:26;27.27;;;12.17;;
4563;SDS011;2294;51.818;8.484;2023-02-15T12:23:56;21.20;;;11.30;;
4563;SDS011;2294;51.818;8.484;2023-02-15T12:26:28;30.83;;;13.73;;
4563;SDS011;2294;51.818;8.484;2023-02-15T12:28:57;30.23;;;14.23;;
4563;SDS011;2294;51.818;8.484;2023-02-15T12:31:28;26.63;;;12.97;;
4563;SDS011;2294;51.818;8.484;2023-02-15T12:34:01;28.80;;;12.60;;
4563;SDS011;2294;51.818;8.484;2023-02-15T12:36:39;25.60;;;11.57;;
4563;SDS011;2294;51.818;8.484;2023-02-15T12:39:18;26.70;;;10.03;;
4563;SDS011;2294;51.818;8.484;2023-02-15T12:41:57;29.10;;;11.90;;
4563;SDS011;2294;51.818;8.484;2023-02-15T12:44:26;32.47;;;13.77;;
4563;SDS011;2294;51.818;8.484;2023-02-15T12:46:58;39.83;;;14.60;;
4563;SDS011;2294;51.818;8.484;2023-02-15T12:49:28;32.87;;;14.27;;
4563;SDS011;2294;51.818;8.484;2023-02-15T12:51:56;22.83;;;11.90;;
4563;SDS011;2294;51.818;8.484;2023-02-15T12:54:35;24.23;;;10.87;;
4563;SDS011;2294;51.818;8.484;2023-02-15T12:59:57;27.20;;;12.23;;
4563;SDS011;2294;51.818;8.484;2023-02-15T13:02:27;21.27;;;12.03;;
4563;SDS011;2294;51.818;8.484;2023-02-15T13:04:57;31.50;;;14.63;;
4563;SDS011;2294;51.818;8.484;2023-02-15T13:07:38;30.00;;;13.70;;
4563;SDS011;2294;51.818;8.484;2023-02-15T13:10:18;24.47;;;11.73;;
4563;SDS011;2294;51.818;8.484;2023-02-15T13:12:50;23.60;;;12.00;;
4563;SDS011;2294;51.818;8.484;2023-02-15T13:15:26;24.83;;;12.50;;
4563;SDS011;2294;51.818;8.484;2023-02-15T13:17:57;22.43;;;11.07;;
4563;SDS011;2294;51.818;8.484;2023-02-15T13:20:26;21.33;;;9.80;;
4563;SDS011;2294;51.818;8.484;2023-02-15T13:22:57;22.73;;;9.97;;
4563;SDS011;2294;51.818;8.484;2023-02-15T13:25:26;24.63;;;11.73;;
4563;SDS011;2294;51.818;8.484;2023-02-15T13:28:00;27.50;;;11.37;;
4563;SDS011;2294;51.818;8.484;2023-02-15T13:30:29;34.43;;;12.63;;
4563;SDS011;2294;51.818;8.484;2023-02-15T13:33:01;26.90;;;11.13;;
4563;SDS011;2294;51.818;8.484;2023-02-15T13:35:33;25.57;;;12.87;;
4563;SDS011;2294;51.818;8.484;2023-02-15T13:38:08;26.33;;;12.30;;
4563;SDS011;2294;51.818;8.484;2023-02-15T13:40:46;25.10;;;12.40;;
4563;SDS011;2294;51.818;8.484;2023-02-15T13:43:23;24.67;;;12.23;;
4563;SDS011;2294;51.818;8.484;2023-02-15T13:46:20;24.80;;;11.13;;
4563;SDS011;2294;51.818;8.484;2023-02-15T13:49:09;21.03;;;10.70;;
4563;SDS011;2294;51.818;8.484;2023-02-15T13:51:48;24.80;;;12.20;;
4563;SDS011;2294;51.818;8.484;2023-02-15T13:54:36;26.40;;;12.63;;
4563;SDS011;2294;51.818;8.484;2023-02-15T13:59:44;25.50;;;12.60;;
4563;SDS011;2294;51.818;8.484;2023-02-15T14:02:28;20.40;;;10.50;;
4563;SDS011;2294;51.818;8.484;2023-02-15T14:05:14;21.10;;;10.80;;
4563;SDS011;2294;51.818;8.484;2023-02-15T14:07:55;26.10;;;9.40;;
4563;SDS011;2294;51.818;8.484;2023-02-15T14:10:33;21.73;;;9.23;;
4563;SDS011;2294;51.818;8.484;2023-02-15T14:13:13;23.03;;;11.07;;
4563;SDS011;2294;51.818;8.484;2023-02-15T14:16:03;19.93;;;9.90;;
4563;SDS011;2294;51.818;8.484;2023-02-15T14:18:35;19.40;;;10.07;;
4563;SDS011;2294;51.818;8.484;2023-02-15T14:21:08;18.13;;;9.17;;
4563;SDS011;2294;51.818;8.484;2023-02-15T14:23:44;22.47;;;10.50;;
4563;SDS011;2294;51.818;8.484;2023-02-15T14:26:24;25.53;;;11.37;;
4563;SDS011;2294;51.818;8.484;2023-02-15T14:29:06;22.07;;;10.70;;
4563;SDS011;2294;51.818;8.484;2023-02-15T14:31:43;27.73;;;11.03;;
4563;SDS011;2294;51.818;8.484;2023-02-15T14:34:16;23.43;;;10.87;;
4563;SDS011;2294;51.818;8.484;2023-02-15T14:36:47;43.50;;;9.43;;
4563;SDS011;2294;51.818;8.484;2023-02-15T14:39:20;21.57;;;9.17;;
4563;SDS011;2294;51.818;8.484;2023-02-15T14:42:12;17.13;;;9.23;;
4563;SDS011;2294;51.818;8.484;2023-02-15T14:44:45;20.60;;;10.37;;
4563;SDS011;2294;51.818;8.484;2023-02-15T14:47:19;20.53;;;10.50;;
4563;SDS011;2294;51.818;8.484;2023-02-15T14:49:51;22.47;;;9.70;;
4563;SDS011;2294;51.818;8.484;2023-02-15T14:52:18;18.20;;;10.10;;
4563;SDS011;2294;51.818;8.484;2023-02-15T14:54:59;19.50;;;9.70;;
4563;SDS011;2294;51.818;8.484;2023-02-15T14:57:27;27.57;;;10.23;;
4563;SDS011;2294;51.818;8.484;2023-02-15T14:59:57;24.37;;;10.97;;
4563;SDS011;2294;51.818;8.484;2023-02-15T15:02:28;22.83;;;10.43;;
4563;SDS011;2294;51.818;8.484;2023-02-15T15:05:06;18.97;;;10.50;;
4563;SDS011;2294;51.818;8.484;2023-02-15T15:07:41;21.83;;;10.63;;
4563;SDS011;2294;51.818;8.484;2023-02-15T15:16:28;19.13;;;10.60;;
4563;SDS011;2294;51.818;8.484;2023-02-15T15:22:17;22.47;;;9.67;;
4563;SDS011;2294;51.818;8.484;2023-02-15T15:24:49;20.20;;;10.27;;
4563;SDS011;2294;51.818;8.484;2023-02-15T15:39:44;16.37;;;8.60;;
4563;SDS011;2294;51.818;8.484;2023-02-15T15:42:32;17.03;;;7.67;;
4563;SDS011;2294;51.818;8.484;2023-02-15T15:45:21;15.03;;;7.77;;
4563;SDS011;2294;51.818;8.484;2023-02-15T15:48:17;18.20;;;9.50;;
4563;SDS011;2294;51.818;8.484;2023-02-15T15:50:56;16.07;;;9.03;;
4563;SDS011;2294;51.818;8.484;2023-02-15T15:53:25;19.53;;;8.10;;
4563;SDS011;2294;51.818;8.484;2023-02-15T15:55:55;14.67;;;8.10;;
4563;SDS011;2294;51.818;8.484;2023-02-15T15:58:27;15.13;;;9.00;;
4563;SDS011;2294;51.818;8.484;2023-02-15T16:00:58;14.33;;;8.13;;
4563;SDS011;2294;51.818;8.484;2023-02-15T16:03:29;20.77;;;9.30;;